Main page
METAR-TAF:

METAR-TAF

Airports :

Burgas Airport

Burgas, Bulgaria

latitude: 42-29N, longitude: 027-29E, elevation: 16 m

Current weather observation

The report was made 16 minutes ago, at 01:30 UTC
Wind 4 kt from the Northwest, varying between West and North/Northwest
Temperature 20°C
Humidity 53%
Pressure 1015 hPa
Visibility 10 km or more
no clouds below 1500 m and no cumulonimbus

METAR: LBBG 200130Z 31004KT 270V340 CAVOK 20/10 Q1015 NOSIG

Time: 04:46 (01:46 UTC)

Forecast

The report was made 2 hours and 46 minutes ago, at 23:00 UTC
Forecast valid from 20 at 00 UTC to 20 at 24 UTC
Wind 8 kt from the West/Northwest
Visibility 10 km or more
no clouds below 1500 m and no cumulonimbus
Becoming
from 20 at 08 UTC to 20 at 10 UTC
Wind 12 kt from the East
Becoming
from 20 at 19 UTC to 20 at 21 UTC
Wind 10 kt from the North

TAF: LBBG 192300Z 2000/2024 30008KT CAVOK BECMG 2008/2010 08012KT BECMG 2019/2021 01010KT

Weather observations and forecasts of more than 4000 airports (METAR and TAF reports).

The available stations are represented by yellow and red dots on the map.

Hover mouse over dot to see the name of the station.

Then click to see weather observations and forecasts.

To change the map : click on the green buttons with a black cross to zoom in, on the green button with a dash to zoom out, or on the green arrows for adjacent maps.


METAR-TAF: